createdAt,value
2023-03-06T00:00:57.099Z,60.36
2023-03-06T00:01:59.461Z,60.33
2023-03-06T00:03:01.927Z,60.40
2023-03-06T00:04:04.453Z,60.27
2023-03-06T00:05:07.238Z,60.25
2023-03-06T00:06:09.660Z,60.06
2023-03-06T00:07:12.048Z,60.25
2023-03-06T00:08:14.596Z,60.38
2023-03-06T00:09:17.008Z,60.32
2023-03-06T00:10:22.473Z,60.38
2023-03-06T00:11:24.881Z,60.50
2023-03-06T00:12:27.709Z,60.41
2023-03-06T00:13:31.222Z,60.66
2023-03-06T00:14:33.636Z,60.46
2023-03-06T00:15:36.053Z,60.36
2023-03-06T00:16:38.513Z,59.98
2023-03-06T00:17:41.099Z,59.90
2023-03-06T00:18:44.142Z,60.00
2023-03-06T00:19:46.515Z,60.07
2023-03-06T00:20:48.847Z,60.33
2023-03-06T00:21:54.760Z,60.30
2023-03-06T00:22:57.756Z,60.37
2023-03-06T00:24:00.137Z,60.69
2023-03-06T00:25:02.585Z,60.82
2023-03-06T00:26:08.412Z,60.62
2023-03-06T00:27:10.805Z,60.65
2023-03-06T00:28:14.962Z,60.98
2023-03-06T00:29:17.562Z,60.70
2023-03-06T00:30:22.644Z,60.76
2023-03-06T00:31:25.042Z,60.98
2023-03-06T00:32:28.746Z,60.70
2023-03-06T00:33:31.319Z,61.00
2023-03-06T00:34:33.648Z,61.07
2023-03-06T00:35:38.904Z,61.30
2023-03-06T00:36:41.803Z,61.01
2023-03-06T00:37:44.541Z,60.74
2023-03-06T00:38:46.874Z,60.95
2023-03-06T00:39:49.710Z,60.77
2023-03-06T00:40:52.078Z,60.87
2023-03-06T00:41:55.666Z,60.76
2023-03-06T00:42:57.988Z,60.78
2023-03-06T00:44:00.309Z,60.88
2023-03-06T00:45:03.015Z,60.84
2023-03-06T00:46:05.962Z,60.86
2023-03-06T00:47:08.553Z,60.62
2023-03-06T00:48:10.884Z,60.68
2023-03-06T00:49:13.209Z,60.63
2023-03-06T00:50:15.604Z,60.67
2023-03-06T00:51:19.834Z,60.74
2023-03-06T00:52:22.170Z,60.69
2023-03-06T00:53:24.502Z,60.79
2023-03-06T00:54:26.821Z,60.78
2023-03-06T00:55:30.933Z,60.63
2023-03-06T00:56:33.344Z,60.82
2023-03-06T00:57:35.690Z,60.82
2023-03-06T00:58:37.993Z,60.56
2023-03-06T00:59:40.546Z,60.71
2023-03-06T01:00:43.906Z,60.82
2023-03-06T01:01:46.427Z,60.55
2023-03-06T01:02:48.827Z,60.49
2023-03-06T01:03:51.238Z,60.49
2023-03-06T01:04:53.658Z,60.45
2023-03-06T01:05:56.033Z,60.59
2023-03-06T01:06:58.440Z,60.63
2023-03-06T01:08:00.963Z,60.48
2023-03-06T01:09:04.537Z,60.43
2023-03-06T01:10:08.184Z,60.68
2023-03-06T01:11:10.651Z,60.19
2023-03-06T01:12:13.070Z,60.08
2023-03-06T01:13:15.437Z,59.95
2023-03-06T01:14:19.458Z,59.77
2023-03-06T01:15:22.729Z,60.20
2023-03-06T01:16:25.289Z,60.42
2023-03-06T01:17:27.727Z,60.45
2023-03-06T01:18:30.135Z,60.08
2023-03-06T01:19:32.478Z,60.05
2023-03-06T01:20:34.906Z,60.33
2023-03-06T01:21:37.240Z,59.80
2023-03-06T01:22:39.635Z,59.71
2023-03-06T01:23:42.157Z,59.97
2023-03-06T01:24:44.597Z,59.90
2023-03-06T01:25:47.027Z,59.96
2023-03-06T01:26:49.708Z,60.15
2023-03-06T01:27:53.087Z,59.63
2023-03-06T01:28:57.494Z,59.54
2023-03-06T01:29:59.825Z,59.49
2023-03-06T01:31:02.216Z,59.72
2023-03-06T01:32:04.947Z,59.80
2023-03-06T01:33:07.362Z,59.63
2023-03-06T01:34:09.745Z,59.81
2023-03-06T01:35:12.982Z,59.49
2023-03-06T01:36:15.498Z,59.25
2023-03-06T01:37:17.896Z,59.47
2023-03-06T01:38:20.348Z,59.44
2023-03-06T01:39:22.661Z,59.36
2023-03-06T01:40:24.998Z,59.41
2023-03-06T01:41:27.471Z,59.47
2023-03-06T01:42:31.999Z,59.48
2023-03-06T01:43:39.668Z,59.78
2023-03-06T01:45:06.746Z,59.59
2023-03-06T01:46:35.420Z,59.43
2023-03-06T01:47:37.805Z,59.38
2023-03-06T01:48:40.246Z,59.33
2023-03-06T01:49:42.653Z,59.61
2023-03-06T01:50:45.059Z,59.52
2023-03-06T01:51:57.462Z,59.29
2023-03-06T01:53:01.159Z,59.60
2023-03-06T01:54:09.084Z,59.44
2023-03-06T01:55:16.421Z,59.76
2023-03-06T01:56:19.489Z,59.51
2023-03-06T01:57:30.980Z,59.33
2023-03-06T01:58:33.488Z,59.17
2023-03-06T01:59:38.517Z,59.01
2023-03-06T02:00:40.911Z,59.32
2023-03-06T02:01:44.429Z,59.36
2023-03-06T02:03:14.320Z,59.28
2023-03-06T02:04:17.718Z,59.26
2023-03-06T02:05:20.340Z,59.35
2023-03-06T02:06:22.764Z,59.00
2023-03-06T02:07:25.212Z,59.03
2023-03-06T02:08:28.913Z,59.10
2023-03-06T02:09:32.840Z,58.79
2023-03-06T02:10:35.562Z,58.89
2023-03-06T02:11:38.047Z,59.12
2023-03-06T02:12:43.751Z,59.03
2023-03-06T02:13:47.220Z,58.69
2023-03-06T02:14:50.241Z,58.76
2023-03-06T02:15:52.629Z,58.90
2023-03-06T02:16:55.067Z,59.00
2023-03-06T02:17:57.638Z,59.20
2023-03-06T02:19:02.417Z,59.07
2023-03-06T02:20:04.743Z,58.84
2023-03-06T02:21:10.153Z,59.10
2023-03-06T02:22:12.640Z,58.96
2023-03-06T02:23:41.373Z,59.11
2023-03-06T02:24:52.216Z,58.90
2023-03-06T02:25:54.696Z,59.10
2023-03-06T02:26:59.933Z,59.07
2023-03-06T02:28:02.350Z,59.51
2023-03-06T02:29:05.145Z,59.04
2023-03-06T02:30:08.738Z,59.05
2023-03-06T02:31:22.481Z,59.58
2023-03-06T02:32:24.870Z,59.52
2023-03-06T02:33:29.317Z,59.30
2023-03-06T02:34:53.758Z,59.20
2023-03-06T02:35:59.493Z,59.70
2023-03-06T02:37:05.644Z,59.99
2023-03-06T02:38:11.740Z,59.47
2023-03-06T02:39:16.040Z,59.43
2023-03-06T02:40:21.181Z,59.76
2023-03-06T02:41:23.549Z,59.51
2023-03-06T02:42:28.962Z,59.77
2023-03-06T02:43:33.933Z,59.43
2023-03-06T02:44:36.747Z,59.29
2023-03-06T02:45:44.502Z,59.26
2023-03-06T02:46:46.913Z,59.67
2023-03-06T02:47:49.277Z,59.58
2023-03-06T02:48:51.682Z,59.18
2023-03-06T02:49:54.109Z,59.43
2023-03-06T02:50:56.543Z,59.81
2023-03-06T02:51:58.912Z,59.85
2023-03-06T02:53:01.320Z,59.43
2023-03-06T02:54:03.798Z,59.42
2023-03-06T02:55:06.652Z,59.44
2023-03-06T02:56:08.980Z,59.40
2023-03-06T02:57:11.398Z,59.28
2023-03-06T02:58:13.812Z,59.23
2023-03-06T02:59:16.206Z,59.15
2023-03-06T03:00:19.337Z,59.33
2023-03-06T03:01:42.204Z,59.70
2023-03-06T03:03:06.041Z,59.69
2023-03-06T03:04:08.841Z,59.80
2023-03-06T03:05:11.394Z,59.40
2023-03-06T03:06:13.769Z,59.45
2023-03-06T03:07:16.135Z,59.63
2023-03-06T03:08:18.537Z,59.51
2023-03-06T03:09:20.916Z,59.42
2023-03-06T03:10:23.362Z,59.52
2023-03-06T03:11:25.736Z,59.86
2023-03-06T03:12:28.810Z,60.14
2023-03-06T03:13:31.266Z,60.41
2023-03-06T03:14:35.816Z,59.81
2023-03-06T03:15:38.347Z,59.63
2023-03-06T03:16:40.716Z,59.77
2023-03-06T03:17:43.200Z,59.94
2023-03-06T03:18:48.046Z,60.09
2023-03-06T03:19:50.826Z,60.03
2023-03-06T03:20:53.222Z,60.37
2023-03-06T03:21:55.645Z,60.61
2023-03-06T03:22:58.067Z,60.37
2023-03-06T03:24:00.434Z,60.11
2023-03-06T03:25:04.108Z,60.41
2023-03-06T03:26:20.549Z,60.46
2023-03-06T03:27:23.014Z,60.31
2023-03-06T03:28:25.349Z,60.37
2023-03-06T03:29:27.735Z,60.30
2023-03-06T03:30:30.144Z,60.35
2023-03-06T03:31:33.025Z,60.27
2023-03-06T03:32:35.394Z,60.48
2023-03-06T03:33:38.979Z,60.97
2023-03-06T03:34:41.344Z,60.66
2023-03-06T03:35:43.713Z,60.35
2023-03-06T03:36:46.645Z,60.55
2023-03-06T03:37:49.103Z,60.98
2023-03-06T03:38:51.555Z,61.22
2023-03-06T03:39:54.011Z,60.96
2023-03-06T03:40:56.404Z,61.23
2023-03-06T03:41:58.908Z,60.81
2023-03-06T03:43:01.247Z,61.50
2023-03-06T03:44:03.657Z,61.52
2023-03-06T03:45:06.477Z,61.51
2023-03-06T03:46:08.899Z,61.07
2023-03-06T03:47:11.338Z,61.09
2023-03-06T03:48:13.780Z,61.32
2023-03-06T03:49:16.230Z,61.26
2023-03-06T03:50:19.127Z,61.39
2023-03-06T03:51:22.070Z,61.33
2023-03-06T03:52:24.524Z,61.54
2023-03-06T03:53:26.858Z,61.94
2023-03-06T03:54:29.319Z,61.89
2023-03-06T03:55:31.761Z,62.10
2023-03-06T03:56:34.242Z,62.21
2023-03-06T03:57:36.698Z,61.96
2023-03-06T03:58:39.721Z,61.77
2023-03-06T03:59:42.073Z,62.23
2023-03-06T04:00:44.504Z,62.01
2023-03-06T04:01:47.004Z,61.95
2023-03-06T04:02:49.615Z,62.26
2023-03-06T04:03:52.255Z,62.48
2023-03-06T04:04:54.718Z,62.59
2023-03-06T04:05:58.145Z,62.49
2023-03-06T04:07:00.886Z,62.57
2023-03-06T04:08:03.379Z,62.29
2023-03-06T04:09:05.872Z,62.26
2023-03-06T04:10:10.414Z,62.35
2023-03-06T04:11:12.804Z,62.44
2023-03-06T04:12:15.361Z,62.95
2023-03-06T04:13:21.013Z,62.95
2023-03-06T04:14:23.378Z,63.25
2023-03-06T04:15:25.801Z,63.15
2023-03-06T04:16:28.152Z,63.28
2023-03-06T04:17:30.670Z,63.17
2023-03-06T04:18:33.072Z,63.45
2023-03-06T04:19:35.408Z,63.02
2023-03-06T04:20:37.763Z,62.86
2023-03-06T04:21:40.491Z,62.90
2023-03-06T04:22:42.871Z,62.55
2023-03-06T04:23:45.233Z,62.62
2023-03-06T04:24:49.978Z,63.01
2023-03-06T04:25:52.342Z,63.30
2023-03-06T04:26:54.758Z,62.83
2023-03-06T04:27:57.118Z,63.09
2023-03-06T04:28:59.596Z,63.06
2023-03-06T04:30:01.959Z,63.22
2023-03-06T04:31:04.462Z,63.32
2023-03-06T04:32:07.341Z,63.54
2023-03-06T04:33:09.805Z,63.91
2023-03-06T04:34:12.237Z,63.69
2023-03-06T04:35:14.587Z,64.27
2023-03-06T04:36:29.249Z,64.59
2023-03-06T04:37:31.696Z,64.60
2023-03-06T04:38:34.120Z,64.80
2023-03-06T04:39:36.570Z,64.56
2023-03-06T04:40:39.019Z,64.66
2023-03-06T04:41:42.124Z,64.95
2023-03-06T04:42:45.005Z,64.89
2023-03-06T04:43:47.392Z,64.94
2023-03-06T04:44:49.788Z,64.86
2023-03-06T04:45:52.262Z,65.00
2023-03-06T04:46:54.670Z,64.76
2023-03-06T04:47:57.064Z,64.73
2023-03-06T04:48:59.552Z,65.10
2023-03-06T04:50:02.250Z,65.11
2023-03-06T04:51:04.761Z,65.23
2023-03-06T04:52:07.374Z,65.39
2023-03-06T04:53:11.053Z,65.35
2023-03-06T04:54:13.381Z,65.10
2023-03-06T04:55:16.696Z,65.18
2023-03-06T04:56:19.045Z,65.12
2023-03-06T04:57:22.133Z,65.37
2023-03-06T04:58:25.253Z,65.42
2023-03-06T04:59:27.641Z,65.56
2023-03-06T05:00:33.336Z,65.69
2023-03-06T05:01:35.775Z,65.59
2023-03-06T05:02:38.131Z,65.62
2023-03-06T05:03:40.498Z,65.32
2023-03-06T05:04:43.198Z,65.51
2023-03-06T05:05:46.424Z,65.56
2023-03-06T05:06:49.696Z,65.76
2023-03-06T05:07:52.901Z,66.21
2023-03-06T05:08:55.469Z,66.23
2023-03-06T05:09:57.799Z,66.58
2023-03-06T05:11:01.680Z,66.56
2023-03-06T05:12:04.385Z,66.46
2023-03-06T05:13:06.820Z,66.33
2023-03-06T05:14:09.203Z,66.52
2023-03-06T05:15:12.714Z,66.79
2023-03-06T05:16:15.521Z,66.74
2023-03-06T05:17:17.916Z,66.84
2023-03-06T05:18:21.229Z,66.91
2023-03-06T05:19:23.716Z,67.04
2023-03-06T05:20:26.306Z,66.77
2023-03-06T05:21:28.694Z,67.07
2023-03-06T05:22:31.242Z,67.10
2023-03-06T05:23:36.475Z,67.52
2023-03-06T05:24:38.891Z,67.44
2023-03-06T05:25:42.163Z,67.49
2023-03-06T05:26:44.544Z,67.40
2023-03-06T05:27:47.277Z,67.22
2023-03-06T05:28:49.741Z,67.25
2023-03-06T05:29:52.152Z,67.63
2023-03-06T05:30:54.525Z,67.50
2023-03-06T05:31:56.889Z,67.54
2023-03-06T05:33:00.307Z,67.40
2023-03-06T05:34:02.633Z,67.69
2023-03-06T05:35:05.992Z,67.64
2023-03-06T05:36:09.693Z,67.92
2023-03-06T05:37:12.137Z,67.91
2023-03-06T05:38:16.063Z,67.63
2023-03-06T05:39:18.490Z,67.83
2023-03-06T05:40:21.023Z,67.88
2023-03-06T05:41:23.402Z,68.04
2023-03-06T05:42:28.468Z,67.93
2023-03-06T05:43:30.916Z,67.78
2023-03-06T05:44:35.095Z,67.94
2023-03-06T05:45:38.333Z,67.97
2023-03-06T05:46:40.716Z,68.19
2023-03-06T05:47:43.122Z,68.48
2023-03-06T05:48:46.757Z,68.45
2023-03-06T05:49:49.358Z,68.40
2023-03-06T05:50:58.781Z,68.16
2023-03-06T05:52:04.086Z,67.74
2023-03-06T05:53:06.988Z,67.89
2023-03-06T05:54:09.354Z,68.11
2023-03-06T05:55:12.503Z,67.83
2023-03-06T05:56:14.858Z,67.59
2023-03-06T05:57:19.894Z,67.42
2023-03-06T05:58:22.315Z,67.72
2023-03-06T05:59:28.196Z,68.11
2023-03-06T06:00:30.599Z,68.30
2023-03-06T06:01:32.960Z,67.94
2023-03-06T06:02:35.446Z,68.00
2023-03-06T06:03:38.357Z,67.83
2023-03-06T06:04:40.876Z,68.01
2023-03-06T06:05:43.265Z,67.82
2023-03-06T06:06:45.606Z,67.24
2023-03-06T06:07:47.968Z,67.54
2023-03-06T06:08:50.325Z,67.87
2023-03-06T06:09:53.537Z,67.59
2023-03-06T06:10:55.875Z,67.60
2023-03-06T06:12:01.046Z,67.30
2023-03-06T06:13:03.406Z,67.30
2023-03-06T06:14:05.799Z,67.23
2023-03-06T06:15:08.430Z,66.91
2023-03-06T06:16:13.234Z,66.97
2023-03-06T06:17:16.713Z,67.19
2023-03-06T06:18:19.099Z,67.01
2023-03-06T06:19:22.375Z,67.00
2023-03-06T06:20:25.458Z,66.59
2023-03-06T06:21:27.813Z,66.36
2023-03-06T06:22:30.196Z,66.63
2023-03-06T06:23:32.638Z,66.66
2023-03-06T06:24:35.032Z,66.40
2023-03-06T06:25:40.174Z,66.20
2023-03-06T06:26:44.990Z,66.18
2023-03-06T06:27:47.363Z,66.08
2023-03-06T06:28:49.807Z,66.13
2023-03-06T06:29:52.688Z,65.91
2023-03-06T06:30:55.086Z,65.85
2023-03-06T06:31:57.510Z,66.13
2023-03-06T06:32:59.961Z,66.36
2023-03-06T06:34:03.895Z,66.36
2023-03-06T06:35:06.725Z,66.28
2023-03-06T06:36:17.307Z,66.35
2023-03-06T06:37:19.693Z,66.37
2023-03-06T06:38:22.075Z,66.48
2023-03-06T06:39:25.140Z,66.19
2023-03-06T06:40:28.328Z,66.55
2023-03-06T06:41:50.735Z,66.31
2023-03-06T06:42:53.865Z,66.15
2023-03-06T06:43:59.036Z,66.55
2023-03-06T06:45:01.554Z,66.34
2023-03-06T06:46:32.085Z,65.95
2023-03-06T06:47:27.036Z,66.04
2023-03-06T06:48:29.448Z,66.29
2023-03-06T06:49:32.017Z,66.45
2023-03-06T06:50:34.462Z,66.31
2023-03-06T06:51:37.488Z,65.97
2023-03-06T06:52:40.052Z,66.10
2023-03-06T06:53:42.602Z,66.06
2023-03-06T06:54:45.609Z,66.06
2023-03-06T06:55:48.005Z,66.22
2023-03-06T06:56:50.663Z,66.40
2023-03-06T06:57:53.368Z,66.48
2023-03-06T06:59:06.898Z,66.43
2023-03-06T07:00:18.041Z,66.49
2023-03-06T07:01:20.745Z,66.47
2023-03-06T07:02:23.267Z,66.50
2023-03-06T07:03:25.662Z,66.28
2023-03-06T07:04:28.045Z,66.48
2023-03-06T07:05:30.418Z,66.32
2023-03-06T07:06:32.769Z,66.12
2023-03-06T07:07:37.340Z,66.13
2023-03-06T07:08:39.761Z,66.05
2023-03-06T07:09:42.387Z,65.61
2023-03-06T07:10:44.736Z,65.71
2023-03-06T07:11:47.072Z,65.81
2023-03-06T07:12:49.451Z,65.79
2023-03-06T07:13:51.800Z,65.42
2023-03-06T07:14:54.316Z,65.61
2023-03-06T07:15:56.743Z,65.83
2023-03-06T07:16:59.249Z,65.63
2023-03-06T07:18:01.747Z,65.62
2023-03-06T07:19:04.487Z,65.54
2023-03-06T07:20:08.862Z,65.31
2023-03-06T07:21:11.787Z,65.13
2023-03-06T07:22:14.180Z,64.41
2023-03-06T07:23:16.672Z,64.06
2023-03-06T07:24:19.009Z,64.18
2023-03-06T07:25:21.536Z,64.40
2023-03-06T07:26:24.998Z,64.16
2023-03-06T07:27:27.451Z,64.06
2023-03-06T07:28:35.583Z,64.11
2023-03-06T07:29:43.713Z,64.08
2023-03-06T07:30:46.274Z,64.07
2023-03-06T07:31:48.703Z,64.14
2023-03-06T07:32:56.293Z,64.12
2023-03-06T07:33:58.709Z,63.76
2023-03-06T07:35:19.010Z,63.83
2023-03-06T07:36:24.042Z,63.64
2023-03-06T07:37:26.448Z,63.31
2023-03-06T07:38:28.834Z,62.68
2023-03-06T07:39:31.260Z,62.24
2023-03-06T07:40:33.849Z,62.51
2023-03-06T07:41:36.560Z,62.38
2023-03-06T07:42:38.957Z,62.50
2023-03-06T07:43:41.624Z,62.26
2023-03-06T07:44:44.085Z,62.02
2023-03-06T07:45:47.075Z,62.28
2023-03-06T07:46:49.588Z,61.28
2023-03-06T07:47:52.885Z,60.61
2023-03-06T07:48:55.834Z,60.38
2023-03-06T07:49:59.520Z,59.95
2023-03-06T07:51:06.543Z,58.89
2023-03-06T07:52:09.088Z,57.45
2023-03-06T07:53:11.689Z,56.84
2023-03-06T07:54:14.092Z,57.04
2023-03-06T07:55:16.582Z,57.46
2023-03-06T07:56:21.250Z,57.74
2023-03-06T07:57:23.672Z,57.65
2023-03-06T07:58:26.496Z,57.22
2023-03-06T07:59:28.872Z,56.16
2023-03-06T08:00:31.313Z,55.63
2023-03-06T08:01:33.686Z,56.25
2023-03-06T08:02:36.117Z,56.53
2023-03-06T08:03:38.905Z,55.90
2023-03-06T08:04:42.247Z,55.46
2023-03-06T08:05:44.958Z,54.76
2023-03-06T08:06:47.298Z,54.55
2023-03-06T08:07:49.696Z,54.33
2023-03-06T08:08:53.631Z,54.06
2023-03-06T08:09:56.031Z,54.27
2023-03-06T08:10:58.478Z,53.08
2023-03-06T08:12:01.295Z,52.22
2023-03-06T08:13:04.063Z,52.93
2023-03-06T08:14:06.453Z,53.03
2023-03-06T08:15:11.162Z,52.39
2023-03-06T08:16:13.577Z,52.29
2023-03-06T08:17:15.986Z,52.22
2023-03-06T08:18:18.452Z,52.39
2023-03-06T08:19:20.835Z,52.71
2023-03-06T08:20:23.305Z,52.89
2023-03-06T08:21:27.778Z,53.09
2023-03-06T08:22:30.125Z,53.16
2023-03-06T08:23:33.584Z,53.41
2023-03-06T08:24:36.017Z,53.63
2023-03-06T08:25:38.346Z,53.37
2023-03-06T08:26:40.704Z,53.66
2023-03-06T08:27:43.435Z,53.72
2023-03-06T08:28:46.149Z,53.43
2023-03-06T08:29:48.489Z,52.92
2023-03-06T08:30:50.863Z,53.27
2023-03-06T08:31:53.423Z,53.39
2023-03-06T08:32:55.818Z,53.66
2023-03-06T08:34:00.364Z,53.31
2023-03-06T08:35:06.601Z,53.16
2023-03-06T08:36:09.134Z,52.71
2023-03-06T08:37:11.635Z,52.43
2023-03-06T08:38:14.302Z,52.58
2023-03-06T08:39:16.850Z,52.57
2023-03-06T08:40:19.225Z,52.81
2023-03-06T08:41:21.646Z,53.16
2023-03-06T08:42:24.076Z,52.94
2023-03-06T08:43:26.689Z,53.04
2023-03-06T08:44:29.090Z,52.63
2023-03-06T08:45:31.563Z,52.16
2023-03-06T08:46:35.011Z,51.75
2023-03-06T08:47:37.504Z,51.69
2023-03-06T08:48:40.175Z,51.81
2023-03-06T08:49:42.669Z,52.67
2023-03-06T08:50:45.047Z,52.27
2023-03-06T08:51:47.411Z,52.22
2023-03-06T08:52:49.821Z,53.05
2023-03-06T08:53:52.610Z,53.26
2023-03-06T08:54:55.123Z,52.63
2023-03-06T08:55:57.537Z,51.47
2023-03-06T08:56:59.975Z,50.97
2023-03-06T08:58:02.766Z,51.07
2023-03-06T08:59:06.202Z,51.41
2023-03-06T09:00:10.965Z,51.08
2023-03-06T09:01:28.197Z,51.15
2023-03-06T09:02:30.656Z,52.49
2023-03-06T09:03:33.124Z,52.31
2023-03-06T09:04:35.408Z,52.46
2023-03-06T09:05:40.433Z,52.09
2023-03-06T09:06:45.427Z,51.72
2023-03-06T09:07:47.910Z,51.31
2023-03-06T09:08:55.152Z,51.80
2023-03-06T09:09:57.957Z,51.81
2023-03-06T09:11:00.292Z,51.52
2023-03-06T09:12:02.728Z,51.52
2023-03-06T09:13:05.168Z,51.51
2023-03-06T09:14:07.659Z,52.07
2023-03-06T09:15:10.717Z,51.82
2023-03-06T09:16:13.179Z,51.79
2023-03-06T09:17:15.571Z,52.02
2023-03-06T09:18:18.226Z,51.01
2023-03-06T09:19:20.665Z,50.48
2023-03-06T09:20:23.147Z,50.61
2023-03-06T09:21:27.272Z,50.71
2023-03-06T09:22:29.717Z,50.65
2023-03-06T09:23:32.374Z,51.08
2023-03-06T09:24:34.892Z,50.82
2023-03-06T09:25:37.242Z,51.53
2023-03-06T09:26:46.177Z,51.58
2023-03-06T09:28:01.907Z,51.79
2023-03-06T09:29:08.087Z,51.14
2023-03-06T09:30:14.293Z,51.14
2023-03-06T09:31:19.768Z,50.77
2023-03-06T09:32:22.818Z,49.62
2023-03-06T09:33:25.653Z,49.54
2023-03-06T09:34:28.381Z,49.63
2023-03-06T09:35:30.761Z,49.90
2023-03-06T09:36:42.731Z,49.88
2023-03-06T09:37:52.229Z,50.81
2023-03-06T09:38:55.041Z,50.87
2023-03-06T09:39:59.928Z,50.85
2023-03-06T09:41:14.993Z,50.14
2023-03-06T09:42:19.927Z,50.42
2023-03-06T09:43:28.018Z,49.92
2023-03-06T09:44:32.641Z,49.78
2023-03-06T09:45:37.189Z,48.52
2023-03-06T09:47:04.043Z,48.82
2023-03-06T09:48:13.867Z,48.15
2023-03-06T09:49:38.647Z,49.62
2023-03-06T09:50:46.375Z,49.94
2023-03-06T09:52:30.084Z,50.28
2023-03-06T09:53:56.789Z,49.22
2023-03-06T09:55:05.121Z,48.77
2023-03-06T09:56:18.778Z,48.32
2023-03-06T09:57:31.917Z,47.64
2023-03-06T09:58:42.811Z,46.84
2023-03-06T09:59:48.991Z,47.20
2023-03-06T10:01:07.382Z,48.03
2023-03-06T10:02:12.589Z,48.03
2023-03-06T10:03:25.241Z,47.83
2023-03-06T10:04:38.376Z,46.49
2023-03-06T10:05:47.624Z,46.61
2023-03-06T10:06:51.860Z,47.30
2023-03-06T10:08:02.320Z,47.80
2023-03-06T10:09:12.937Z,47.73
2023-03-06T10:10:21.105Z,47.33
2023-03-06T10:12:03.861Z,47.09
2023-03-06T10:13:25.381Z,47.12
2023-03-06T10:14:49.560Z,46.74
2023-03-06T10:16:07.253Z,46.92
2023-03-06T10:17:17.211Z,47.42
2023-03-06T10:18:19.608Z,47.02
2023-03-06T10:19:22.262Z,46.55
2023-03-06T10:20:45.525Z,46.04
2023-03-06T10:22:23.102Z,45.50
2023-03-06T10:23:53.914Z,45.52
2023-03-06T10:25:20.177Z,46.35
2023-03-06T10:26:28.838Z,46.22
2023-03-06T10:27:47.970Z,45.41
2023-03-06T10:29:11.636Z,45.23
2023-03-06T10:30:46.509Z,45.00
2023-03-06T10:31:57.159Z,45.07
2023-03-06T10:33:17.496Z,45.42
2023-03-06T10:34:27.725Z,44.79
2023-03-06T10:35:56.366Z,43.99
2023-03-06T10:37:06.274Z,44.64
2023-03-06T10:38:21.131Z,45.12
2023-03-06T10:39:23.687Z,44.76
2023-03-06T10:40:34.891Z,45.19
2023-03-06T10:41:38.379Z,44.83
2023-03-06T10:42:40.799Z,44.84
2023-03-06T10:43:45.175Z,44.70
2023-03-06T10:44:47.588Z,44.70
2023-03-06T10:45:52.765Z,44.99
2023-03-06T10:46:56.354Z,45.15
2023-03-06T10:48:14.389Z,45.62
2023-03-06T10:49:22.877Z,45.13
2023-03-06T10:50:28.411Z,44.80
2023-03-06T10:51:31.691Z,43.98
2023-03-06T10:52:35.668Z,43.94
2023-03-06T10:53:49.279Z,44.19
2023-03-06T10:54:51.694Z,44.41
2023-03-06T10:55:57.509Z,44.30
2023-03-06T10:57:31.101Z,44.86
2023-03-06T10:58:33.596Z,44.92
2023-03-06T10:59:53.705Z,44.87
2023-03-06T11:01:02.884Z,45.21
2023-03-06T11:02:37.347Z,45.52
2023-03-06T11:03:39.858Z,44.76
2023-03-06T11:04:47.483Z,44.59
2023-03-06T11:06:30.990Z,44.51
2023-03-06T11:07:35.534Z,44.99
2023-03-06T11:08:38.986Z,45.10
2023-03-06T11:10:19.175Z,44.92
2023-03-06T11:11:36.893Z,45.27
2023-03-06T11:12:41.892Z,44.89
2023-03-06T11:13:56.998Z,44.89
2023-03-06T11:15:14.515Z,45.08
2023-03-06T11:16:20.400Z,45.30
2023-03-06T11:17:32.227Z,45.35
2023-03-06T11:18:38.828Z,45.35
2023-03-06T11:19:41.229Z,45.25
2023-03-06T11:20:54.555Z,45.08
2023-03-06T11:22:07.709Z,45.01
2023-03-06T11:23:33.199Z,45.16
2023-03-06T11:24:40.041Z,44.79
2023-03-06T11:26:05.987Z,44.90
2023-03-06T11:27:34.615Z,45.48
2023-03-06T11:28:44.215Z,45.94
2023-03-06T11:29:49.787Z,45.60
2023-03-06T11:31:08.470Z,45.27
2023-03-06T11:32:22.808Z,45.19
2023-03-06T11:33:34.355Z,45.72
2023-03-06T11:34:48.628Z,44.92
2023-03-06T11:36:15.578Z,45.80
2023-03-06T11:37:43.402Z,45.99
2023-03-06T11:38:49.718Z,45.65
2023-03-06T11:40:12.305Z,45.29
2023-03-06T11:41:42.707Z,45.15
2023-03-06T11:43:07.162Z,44.68
2023-03-06T11:44:30.919Z,44.18
2023-03-06T11:45:45.625Z,44.45
2023-03-06T11:46:51.771Z,44.04
2023-03-06T11:48:15.998Z,44.27
2023-03-06T11:49:57.035Z,44.22
2023-03-06T11:51:18.406Z,44.37
2023-03-06T11:52:37.901Z,44.17
2023-03-06T11:53:43.155Z,44.58
2023-03-06T11:54:49.130Z,44.65
2023-03-06T11:56:18.910Z,44.88
2023-03-06T11:57:49.271Z,44.28
2023-03-06T11:59:04.247Z,43.49
2023-03-06T12:00:15.905Z,43.46
2023-03-06T12:01:32.942Z,42.10
2023-03-06T12:02:58.625Z,42.60
2023-03-06T12:04:30.038Z,42.93
2023-03-06T12:05:41.459Z,42.62
2023-03-06T12:06:59.786Z,42.75
2023-03-06T12:08:25.389Z,42.84
2023-03-06T12:09:42.770Z,42.10
2023-03-06T12:11:20.196Z,42.22
2023-03-06T12:12:47.850Z,42.85
2023-03-06T12:14:13.236Z,42.91
2023-03-06T12:15:52.443Z,42.75
2023-03-06T12:16:58.656Z,42.97
2023-03-06T12:18:03.740Z,42.82
2023-03-06T12:19:41.493Z,42.46
2023-03-06T12:20:46.508Z,42.15
2023-03-06T12:22:02.375Z,42.11
2023-03-06T12:23:15.337Z,42.79
2023-03-06T12:24:53.415Z,42.15
2023-03-06T12:26:05.198Z,42.49
2023-03-06T12:27:19.953Z,41.87
2023-03-06T12:28:26.279Z,42.03
2023-03-06T12:29:50.344Z,42.60
2023-03-06T12:31:06.071Z,42.23
2023-03-06T12:32:11.491Z,42.45
2023-03-06T12:33:36.025Z,42.54
2023-03-06T12:34:45.252Z,41.85
2023-03-06T12:35:57.563Z,41.84
2023-03-06T12:37:21.510Z,42.22
2023-03-06T12:38:47.422Z,42.37
2023-03-06T12:40:38.048Z,41.92
2023-03-06T12:41:43.612Z,41.83
2023-03-06T12:43:18.790Z,41.86
2023-03-06T12:44:27.714Z,41.74
2023-03-06T12:45:52.129Z,42.03
2023-03-06T12:49:12.377Z,42.08
2023-03-06T12:50:28.871Z,42.91
2023-03-06T12:51:32.801Z,42.76
2023-03-06T12:52:35.866Z,42.63
2023-03-06T12:53:40.512Z,42.04
2023-03-06T12:54:43.609Z,41.89
2023-03-06T12:55:47.985Z,42.08
2023-03-06T12:56:51.286Z,42.08
2023-03-06T12:57:54.245Z,41.71
2023-03-06T12:58:58.715Z,41.73
2023-03-06T13:01:15.307Z,42.80
2023-03-06T13:02:23.362Z,42.48
2023-03-06T13:03:28.780Z,42.60
2023-03-06T13:04:41.695Z,42.39
2023-03-06T13:06:17.806Z,42.96
2023-03-06T13:07:47.781Z,43.39
2023-03-06T13:09:04.832Z,42.59
2023-03-06T13:10:27.317Z,43.22
2023-03-06T13:11:43.164Z,43.41
2023-03-06T13:13:05.630Z,43.95
2023-03-06T13:14:54.700Z,43.55
2023-03-06T13:18:00.000Z,43.63
2023-03-06T13:20:51.326Z,43.74
2023-03-06T13:22:56.675Z,43.96
2023-03-06T13:24:23.085Z,44.09
2023-03-06T13:25:33.426Z,44.06
2023-03-06T13:28:54.052Z,44.33
2023-03-06T13:30:21.221Z,44.40
2023-03-06T13:31:46.589Z,44.38
2023-03-06T13:32:53.049Z,44.37
2023-03-06T13:33:59.095Z,44.00
2023-03-06T13:35:01.831Z,44.09
2023-03-06T13:36:32.975Z,43.82
2023-03-06T13:37:35.900Z,43.20
2023-03-06T13:38:40.937Z,43.96
2023-03-06T13:39:55.250Z,44.48
2023-03-06T13:41:25.076Z,44.43
2023-03-06T13:42:47.955Z,44.51
2023-03-06T13:44:19.758Z,44.87
2023-03-06T13:45:30.339Z,45.59
2023-03-06T13:46:35.878Z,45.75
2023-03-06T13:48:06.439Z,45.78
2023-03-06T13:49:09.667Z,45.94
2023-03-06T13:50:30.884Z,45.81
2023-03-06T13:51:42.391Z,46.26
2023-03-06T13:53:26.057Z,46.43
2023-03-06T13:55:06.356Z,46.14
2023-03-06T13:56:48.152Z,46.03
2023-03-06T13:58:22.590Z,46.47
2023-03-06T13:59:47.187Z,46.50
2023-03-06T14:01:10.601Z,46.79
2023-03-06T14:02:29.381Z,46.76
2023-03-06T14:04:26.012Z,46.76
2023-03-06T14:05:47.870Z,47.07
2023-03-06T14:06:53.937Z,47.35
2023-03-06T14:08:16.076Z,47.29
2023-03-06T14:09:37.575Z,47.21
2023-03-06T14:10:40.941Z,47.46
2023-03-06T14:11:52.496Z,48.04
2023-03-06T14:13:02.042Z,48.12
2023-03-06T14:14:04.381Z,47.93
2023-03-06T14:15:12.503Z,47.95
2023-03-06T14:16:49.320Z,48.30
2023-03-06T14:18:24.934Z,48.42
2023-03-06T14:19:31.973Z,48.72
2023-03-06T14:20:42.351Z,48.55
2023-03-06T14:21:44.651Z,49.00
2023-03-06T14:22:47.091Z,49.15
2023-03-06T14:24:00.311Z,49.00
2023-03-06T14:25:14.159Z,48.94
2023-03-06T14:26:20.993Z,49.02
2023-03-06T14:27:48.123Z,49.32
2023-03-06T14:28:53.301Z,49.41
2023-03-06T14:30:06.787Z,49.11
2023-03-06T14:31:18.915Z,49.27
2023-03-06T14:34:40.963Z,49.52
2023-03-06T14:35:51.993Z,49.64
2023-03-06T14:37:00.447Z,49.60
2023-03-06T14:38:06.637Z,49.71
2023-03-06T14:39:17.177Z,49.80